Time;durP1;ratioP1;P1;durP2;ratioP2;P2;SDS_P1;SDS_P2;PMS_P1;PMS_P2;Temp;Humidity;BMP_temperature;BMP_pressure;BME280_temperature;BME280_humidity;BME280_pressure;Samples;Min_cycle;Max_cycle;Signal;HPM_P1;HPM_P2
2022/07/24 00:02:23;;;;;;;5.65;4.40;;;22.10;48.20;;;;;;4998364;28;20054;-45
2022/07/24 00:04:50;;;;;;;5.43;3.88;;;22.00;48.20;;;;;;5003122;28;20057;-44
2022/07/24 00:07:18;;;;;;;5.10;4.25;;;22.00;48.30;;;;;;4998698;28;20478;-49
2022/07/24 00:09:45;;;;;;;7.07;4.80;;;22.00;48.40;;;;;;5003097;28;20057;-45
2022/07/24 00:12:14;;;;;;;7.03;5.00;;;22.00;48.40;;;;;;5004680;28;20054;-44
2022/07/24 00:14:41;;;;;;;4.75;4.05;;;21.90;48.40;;;;;;5002393;28;20053;-45
2022/07/24 00:17:09;;;;;;;5.82;4.50;;;21.90;48.50;;;;;;4999177;28;20060;-46
2022/07/24 00:19:36;;;;;;;6.78;4.50;;;21.90;48.60;;;;;;5002063;28;20054;-44
2022/07/24 00:22:04;;;;;;;5.25;4.03;;;21.90;49.20;;;;;;5004875;28;20061;-46
2022/07/24 00:24:31;;;;;;;5.15;4.57;;;21.80;48.70;;;;;;5003915;28;20072;-47
2022/07/24 00:27:00;;;;;;;7.93;4.88;;;21.80;48.80;;;;;;5000664;28;20065;-44
2022/07/24 00:29:29;;;;;;;6.68;4.55;;;21.80;48.90;;;;;;5003288;28;20387;-44
2022/07/24 00:31:57;;;;;;;7.47;4.93;;;21.80;48.90;;;;;;5003615;28;20494;-45
2022/07/24 00:34:24;;;;;;;6.10;4.45;;;21.80;49.10;;;;;;5002907;28;20065;-44
2022/07/24 00:36:51;;;;;;;6.57;4.57;;;21.70;49.10;;;;;;4999321;28;20525;-44
2022/07/24 00:39:19;;;;;;;6.20;4.40;;;21.70;49.20;;;;;;5004181;28;20062;-46
2022/07/24 00:41:46;;;;;;;6.13;4.32;;;21.70;49.20;;;;;;5005966;28;20513;-47
2022/07/24 00:44:16;;;;;;;5.57;4.60;;;21.60;49.20;;;;;;5003619;28;20076;-44
2022/07/24 00:46:46;;;;;;;6.22;4.45;;;21.60;49.30;;;;;;5001937;28;20395;-44
2022/07/24 00:49:15;;;;;;;7.97;4.63;;;21.60;49.40;;;;;;5005464;28;20509;-47
2022/07/24 00:51:44;;;;;;;6.78;5.03;;;21.60;49.50;;;;;;5003736;28;20518;-44
2022/07/24 00:54:13;;;;;;;5.78;4.50;;;21.50;49.50;;;;;;5002751;28;20061;-47
2022/07/24 00:56:42;;;;;;;7.20;5.07;;;21.50;49.50;;;;;;5001648;28;20410;-45
2022/07/24 00:59:10;;;;;;;5.85;4.60;;;21.50;49.60;;;;;;4998298;28;20061;-46
2022/07/24 01:01:37;;;;;;;6.55;4.53;;;21.50;49.60;;;;;;5002119;28;20057;-44
2022/07/24 01:04:06;;;;;;;6.07;4.60;;;21.50;49.60;;;;;;5005598;28;20145;-44
2022/07/24 01:06:34;;;;;;;7.00;4.60;;;21.40;49.70;;;;;;4999697;28;20060;-44
2022/07/24 01:09:02;;;;;;;5.93;4.43;;;21.40;49.70;;;;;;5003482;28;20061;-45
2022/07/24 01:11:30;;;;;;;6.95;4.60;;;21.40;49.70;;;;;;5000855;28;20498;-45
2022/07/24 01:13:58;;;;;;;6.47;4.57;;;21.40;49.80;;;;;;5002140;28;20046;-47
2022/07/24 01:16:25;;;;;;;8.95;4.65;;;21.30;49.80;;;;;;4996230;28;20061;-44
2022/07/24 01:18:53;;;;;;;6.22;5.13;;;21.30;49.90;;;;;;4998223;28;20407;-46
2022/07/24 01:21:21;;;;;;;7.13;5.18;;;21.30;50.00;;;;;;5003879;28;20919;-44
2022/07/24 01:23:49;;;;;;;7.72;5.15;;;21.30;50.10;;;;;;5002826;28;20069;-45
2022/07/24 01:26:16;;;;;;;6.85;5.38;;;21.20;50.10;;;;;;4996471;28;20045;-44
2022/07/24 01:28:44;;;;;;;7.35;5.20;;;21.20;50.20;;;;;;4998621;28;20046;-45
2022/07/24 01:31:11;;;;;;;6.15;5.20;;;21.20;50.20;;;;;;5000900;28;20057;-47
2022/07/24 01:33:39;;;;;;;7.45;5.55;;;21.10;50.20;;;;;;4997272;28;20050;-45
2022/07/24 01:36:07;;;;;;;8.45;5.07;;;21.20;50.40;;;;;;4999585;28;20124;-48
2022/07/24 01:38:35;;;;;;;9.10;5.57;;;21.10;50.30;;;;;;4999938;28;21292;-46
2022/07/24 01:41:03;;;;;;;7.20;5.03;;;21.10;50.40;;;;;;5001159;28;20054;-46
2022/07/24 01:43:30;;;;;;;8.45;5.05;;;21.10;50.40;;;;;;4998827;28;20074;-46
2022/07/24 01:45:58;;;;;;;8.20;5.55;;;21.10;50.50;;;;;;4999267;28;20058;-45
2022/07/24 01:48:25;;;;;;;8.15;4.93;;;21.00;50.50;;;;;;4987330;28;20053;-45
2022/07/24 01:50:53;;;;;;;7.97;5.47;;;21.00;50.60;;;;;;4982344;28;20414;-45
2022/07/24 01:53:20;;;;;;;5.80;4.75;;;21.00;50.70;;;;;;4980203;28;20069;-49
2022/07/24 01:55:55;;;;;;;8.05;5.13;;;21.00;50.70;;;;;;4979834;28;20065;-44
2022/07/24 01:58:23;;;;;;;7.50;5.30;;;20.90;50.90;;;;;;4978101;28;20054;-44
2022/07/24 02:00:50;;;;;;;7.30;4.60;;;21.00;50.80;;;;;;4979871;28;20050;-45
2022/07/24 02:03:18;;;;;;;6.03;5.28;;;20.90;50.80;;;;;;4982023;28;20062;-44
2022/07/24 02:05:45;;;;;;;5.90;4.93;;;20.90;50.90;;;;;;4979332;28;20066;-45
2022/07/24 02:08:14;;;;;;;8.20;5.40;;;20.90;51.00;;;;;;4979170;28;20399;-49
2022/07/24 02:10:41;;;;;;;8.18;5.30;;;20.80;51.00;;;;;;4983986;28;21142;-44
2022/07/24 02:13:10;;;;;;;8.00;6.00;;;20.90;51.10;;;;;;4979379;28;20054;-44
2022/07/24 02:15:38;;;;;;;9.43;5.53;;;20.80;51.10;;;;;;4978877;28;20061;-46
2022/07/24 02:18:05;;;;;;;8.20;5.35;;;20.80;51.20;;;;;;4984276;28;20065;-48
2022/07/24 02:20:33;;;;;;;6.82;5.20;;;20.80;51.30;;;;;;4984120;28;21197;-45
2022/07/24 02:23:01;;;;;;;7.70;5.60;;;20.70;51.30;;;;;;4983417;28;20058;-44
2022/07/24 02:25:28;;;;;;;10.07;5.63;;;20.70;51.30;;;;;;4983749;28;20414;-45
2022/07/24 02:27:56;;;;;;;7.10;5.18;;;20.70;51.40;;;;;;4975458;28;20422;-44
2022/07/24 02:30:25;;;;;;;7.70;5.10;;;20.70;51.50;;;;;;4982894;28;20058;-48
2022/07/24 02:32:55;;;;;;;7.90;5.40;;;20.70;51.60;;;;;;4980479;28;20046;-45
2022/07/24 02:35:22;;;;;;;7.00;5.35;;;20.70;51.50;;;;;;4983883;28;20486;-44
2022/07/24 02:37:50;;;;;;;7.03;4.75;;;20.60;51.50;;;;;;4981530;28;20502;-45
2022/07/24 02:40:17;;;;;;;7.20;5.15;;;20.60;51.60;;;;;;4984302;28;20061;-45
2022/07/24 02:42:45;;;;;;;7.38;5.68;;;20.60;51.60;;;;;;4982963;28;20046;-46
2022/07/24 02:45:13;;;;;;;8.30;5.57;;;20.60;51.70;;;;;;4981899;28;20051;-45
2022/07/24 02:47:49;;;;;;;7.18;5.32;;;20.60;51.70;;;;;;4981066;28;20058;-45
2022/07/24 02:50:18;;;;;;;9.02;5.85;;;20.60;51.80;;;;;;4982296;28;20439;-45
2022/07/24 02:52:45;;;;;;;6.28;5.28;;;20.50;51.70;;;;;;4982146;28;20050;-45
2022/07/24 02:55:12;;;;;;;7.78;5.10;;;20.50;51.70;;;;;;4983204;28;20046;-47
2022/07/24 02:57:40;;;;;;;10.27;5.35;;;20.50;51.80;;;;;;4977361;28;20058;-46
2022/07/24 03:00:13;;;;;;;7.40;5.63;;;20.50;52.30;;;;;;4982350;28;20054;-45
2022/07/24 03:02:41;;;;;;;9.30;5.60;;;20.50;51.90;;;;;;4979683;28;20050;-44
2022/07/24 03:05:11;;;;;;;7.55;5.15;;;20.50;51.90;;;;;;4980701;28;21128;-44
2022/07/24 03:07:39;;;;;;;7.50;5.57;;;20.40;52.00;;;;;;4976346;28;20058;-45
2022/07/24 03:10:10;;;;;;;7.90;5.95;;;20.40;52.00;;;;;;4980772;28;20498;-44
2022/07/24 03:12:38;;;;;;;7.20;5.85;;;20.40;52.10;;;;;;4980332;28;20062;-47
2022/07/24 03:15:06;;;;;;;9.68;5.55;;;20.40;52.10;;;;;;4981049;28;20050;-46
2022/07/24 03:17:34;;;;;;;7.85;5.25;;;20.40;52.10;;;;;;4979569;28;20525;-44
2022/07/24 03:20:02;;;;;;;6.05;4.82;;;20.40;52.20;;;;;;4982545;28;20057;-46
2022/07/24 03:22:30;;;;;;;7.40;5.60;;;20.40;52.20;;;;;;4979926;28;20514;-46
2022/07/24 03:24:58;;;;;;;5.90;4.68;;;20.30;52.20;;;;;;4983738;28;20077;-44
2022/07/24 03:27:26;;;;;;;7.85;5.88;;;20.30;52.30;;;;;;4977840;28;20077;-44
2022/07/24 03:29:53;;;;;;;7.55;5.97;;;20.30;52.30;;;;;;4982271;28;20410;-47
2022/07/24 03:32:21;;;;;;;9.85;6.15;;;20.30;52.40;;;;;;4977889;28;20057;-45
2022/07/24 03:34:48;;;;;;;7.38;5.90;;;20.30;52.40;;;;;;4982557;28;20406;-49
2022/07/24 03:37:16;;;;;;;7.80;5.63;;;20.30;52.50;;;;;;4978065;28;20061;-44
2022/07/24 03:39:45;;;;;;;7.32;5.35;;;20.30;52.50;;;;;;4982521;28;20050;-44
2022/07/24 03:42:12;;;;;;;7.20;5.43;;;20.20;52.50;;;;;;4982827;28;20058;-49
2022/07/24 03:44:39;;;;;;;9.00;5.30;;;20.20;52.60;;;;;;4983433;28;20057;-45
2022/07/24 03:47:07;;;;;;;10.20;5.97;;;20.20;52.60;;;;;;4980645;28;20051;-46
2022/07/24 03:49:34;;;;;;;7.07;4.90;;;20.20;52.60;;;;;;4987505;28;20498;-48
2022/07/24 03:52:02;;;;;;;7.82;5.53;;;20.20;52.60;;;;;;4985465;28;20054;-47
2022/07/24 03:54:29;;;;;;;6.35;5.10;;;20.20;52.70;;;;;;4986451;28;21274;-44
2022/07/24 03:56:58;;;;;;;8.27;5.03;;;20.20;52.70;;;;;;4982196;28;20054;-44
2022/07/24 03:59:26;;;;;;;6.78;5.30;;;20.20;52.80;;;;;;4984397;28;20065;-45
2022/07/24 04:01:53;;;;;;;7.28;5.72;;;20.20;52.80;;;;;;4985387;28;20094;-47
2022/07/24 04:04:21;;;;;;;7.65;5.47;;;20.10;52.90;;;;;;4985173;28;20062;-45
2022/07/24 04:06:48;;;;;;;7.00;5.38;;;20.20;52.90;;;;;;4981932;28;20050;-46
2022/07/24 04:09:15;;;;;;;8.27;5.35;;;20.20;53.00;;;;;;4982860;28;20066;-45
2022/07/24 04:11:44;;;;;;;6.95;5.75;;;20.20;53.00;;;;;;4986310;28;20077;-45
2022/07/24 04:14:13;;;;;;;6.95;5.47;;;20.10;53.00;;;;;;4983967;28;20061;-47
2022/07/24 04:16:40;;;;;;;6.93;5.32;;;20.20;53.00;;;;;;4974327;28;20050;-44
2022/07/24 04:19:08;;;;;;;8.68;5.25;;;20.20;53.10;;;;;;4981301;28;20414;-46
2022/07/24 04:21:35;;;;;;;6.30;5.10;;;20.20;53.10;;;;;;4985076;28;20054;-44
2022/07/24 04:24:02;;;;;;;8.35;5.70;;;20.20;53.20;;;;;;4983507;28;20512;-48
2022/07/24 04:26:30;;;;;;;9.45;5.38;;;20.20;53.20;;;;;;4976798;28;20051;-44
2022/07/24 04:28:57;;;;;;;7.18;5.22;;;20.20;53.20;;;;;;4981409;28;20051;-48
2022/07/24 04:31:26;;;;;;;8.38;5.68;;;20.20;53.30;;;;;;4984835;28;20058;-46
2022/07/24 04:33:54;;;;;;;7.93;5.80;;;20.20;53.30;;;;;;4982472;28;20050;-45
2022/07/24 04:36:21;;;;;;;5.80;4.88;;;20.20;53.30;;;;;;4978463;28;20046;-50
2022/07/24 04:38:48;;;;;;;6.38;5.38;;;20.20;53.20;;;;;;4982338;28;20062;-49
2022/07/24 04:41:17;;;;;;;8.30;5.85;;;20.20;53.40;;;;;;4983729;28;20051;-50
2022/07/24 04:43:44;;;;;;;8.52;5.55;;;20.30;53.40;;;;;;4980008;28;20059;-44
2022/07/24 04:46:12;;;;;;;7.35;5.82;;;20.30;53.40;;;;;;4982019;28;20414;-44
2022/07/24 04:48:41;;;;;;;8.85;6.43;;;20.30;53.40;;;;;;4979284;28;20065;-44
2022/07/24 04:51:08;;;;;;;7.82;6.15;;;20.30;53.40;;;;;;4982649;28;20399;-44
2022/07/24 04:53:36;;;;;;;7.38;5.97;;;20.30;53.50;;;;;;4984206;28;20076;-46
2022/07/24 04:56:04;;;;;;;7.05;5.85;;;20.30;54.00;;;;;;4979160;28;20057;-47
2022/07/24 04:58:31;;;;;;;7.72;5.97;;;20.30;53.50;;;;;;4984073;28;20054;-47
2022/07/24 05:00:59;;;;;;;8.52;6.55;;;20.30;53.60;;;;;;4985048;28;20051;-48
2022/07/24 05:03:27;;;;;;;7.60;5.78;;;20.30;53.70;;;;;;4983507;28;20410;-44
2022/07/24 05:05:56;;;;;;;9.43;6.38;;;20.30;53.60;;;;;;4982235;28;20734;-47
2022/07/24 05:08:23;;;;;;;8.40;6.00;;;20.40;53.70;;;;;;4981301;28;20058;-49
2022/07/24 05:10:51;;;;;;;8.93;5.95;;;20.40;53.70;;;;;;4983463;28;20046;-46
2022/07/24 05:13:18;;;;;;;9.35;6.35;;;20.40;53.80;;;;;;4979169;28;20047;-48
2022/07/24 05:15:46;;;;;;;6.85;5.63;;;20.50;53.80;;;;;;4980552;28;20059;-44
2022/07/24 05:18:13;;;;;;;8.35;5.70;;;20.50;53.70;;;;;;4981290;28;20422;-45
2022/07/24 05:20:41;;;;;;;8.38;5.38;;;20.50;53.80;;;;;;4982215;28;20506;-45
2022/07/24 05:23:09;;;;;;;7.43;6.15;;;20.50;53.80;;;;;;4980981;28;20046;-44
2022/07/24 05:25:37;;;;;;;7.50;5.45;;;20.60;53.80;;;;;;4979962;28;20433;-45
2022/07/24 05:28:05;;;;;;;7.80;5.70;;;20.60;53.80;;;;;;4982735;28;20058;-44
2022/07/24 05:30:32;;;;;;;8.02;5.47;;;20.60;53.80;;;;;;4980366;28;20058;-44
2022/07/24 05:33:00;;;;;;;7.13;5.30;;;20.70;53.90;;;;;;4977436;28;20054;-46
2022/07/24 05:35:27;;;;;;;8.80;5.35;;;20.70;54.00;;;;;;4981762;28;20054;-44
2022/07/24 05:37:57;;;;;;;8.23;5.35;;;20.70;53.90;;;;;;4981984;28;20055;-45
2022/07/24 05:40:27;;;;;;;8.70;5.55;;;20.80;53.90;;;;;;4980552;28;20490;-45
2022/07/24 05:42:56;;;;;;;6.22;4.82;;;20.70;53.90;;;;;;4979758;28;20068;-45
2022/07/24 05:45:24;;;;;;;7.82;5.30;;;20.80;54.00;;;;;;4984126;28;20069;-46
2022/07/24 05:47:51;;;;;;;5.85;4.70;;;20.80;53.90;;;;;;4985125;28;20059;-47
2022/07/24 05:50:19;;;;;;;6.32;4.78;;;20.90;54.00;;;;;;4980878;28;20050;-44
2022/07/24 05:52:46;;;;;;;6.20;5.00;;;20.90;54.10;;;;;;4981190;28;20058;-49
2022/07/24 05:55:14;;;;;;;6.28;5.18;;;21.00;54.20;;;;;;4984474;28;20054;-46
2022/07/24 05:57:43;;;;;;;5.57;4.80;;;21.00;54.20;;;;;;4977446;28;20073;-47
2022/07/24 06:00:11;;;;;;;6.93;4.82;;;21.10;54.50;;;;;;4983620;28;20442;-46
2022/07/24 06:02:38;;;;;;;7.50;5.20;;;21.10;54.40;;;;;;4982569;28;20426;-45
2022/07/24 06:05:06;;;;;;;6.25;5.18;;;21.10;54.30;;;;;;4985247;28;20058;-49
2022/07/24 06:07:33;;;;;;;13.38;5.25;;;21.20;54.50;;;;;;4983791;28;20061;-45
2022/07/24 06:10:01;;;;;;;8.38;5.55;;;21.30;54.80;;;;;;4985161;28;20081;-45
2022/07/24 06:12:28;;;;;;;9.43;5.07;;;21.30;54.70;;;;;;4982751;28;20572;-45
2022/07/24 06:14:57;;;;;;;6.85;5.38;;;21.40;54.70;;;;;;4984569;28;20061;-45
2022/07/24 06:17:25;;;;;;;9.30;5.00;;;21.50;54.90;;;;;;4981578;28;20529;-45
2022/07/24 06:19:52;;;;;;;7.18;4.50;;;21.50;54.70;;;;;;4984498;28;20054;-49
2022/07/24 06:22:20;;;;;;;8.52;4.55;;;21.50;54.70;;;;;;4983724;28;20061;-45
2022/07/24 06:24:47;;;;;;;6.80;4.38;;;21.60;54.70;;;;;;4984747;28;20058;-45
2022/07/24 06:27:14;;;;;;;7.78;4.38;;;21.70;54.60;;;;;;4982656;28;20065;-44
2022/07/24 06:29:42;;;;;;;5.70;4.40;;;21.80;54.60;;;;;;4984126;28;20054;-45
2022/07/24 06:32:11;;;;;;;5.78;4.35;;;21.80;54.70;;;;;;4982129;28;20088;-46
2022/07/24 06:34:38;;;;;;;8.52;4.72;;;21.90;54.70;;;;;;4984196;28;20400;-46
2022/07/24 06:37:05;;;;;;;7.55;4.57;;;21.90;54.60;;;;;;4982894;28;20061;-48
2022/07/24 06:39:33;;;;;;;5.70;4.70;;;22.00;54.40;;;;;;4984424;28;20050;-48
2022/07/24 06:42:00;;;;;;;5.30;4.07;;;22.00;54.30;;;;;;4983857;28;20058;-46
2022/07/24 06:44:28;;;;;;;5.40;4.07;;;22.00;54.30;;;;;;4981952;28;20510;-45
2022/07/24 06:46:55;;;;;;;4.95;4.30;;;22.10;54.30;;;;;;4983258;28;20054;-46
2022/07/24 06:49:24;;;;;;;13.85;4.38;;;22.10;54.00;;;;;;4983880;28;20054;-45
2022/07/24 06:51:53;;;;;;;7.22;4.13;;;22.20;54.50;;;;;;4983508;28;20065;-46
2022/07/24 06:54:20;;;;;;;5.20;3.90;;;22.30;54.00;;;;;;4980794;28;20058;-45
2022/07/24 06:56:48;;;;;;;5.20;4.05;;;22.30;53.60;;;;;;4982318;28;20046;-46
2022/07/24 06:59:15;;;;;;;5.75;4.25;;;22.40;53.70;;;;;;4981420;28;20406;-47
2022/07/24 07:01:43;;;;;;;8.18;4.63;;;22.40;53.70;;;;;;4983314;28;20058;-45
2022/07/24 07:04:10;;;;;;;5.85;4.07;;;22.50;53.90;;;;;;4984418;28;20415;-47
2022/07/24 07:06:39;;;;;;;4.85;3.70;;;22.60;54.20;;;;;;4982894;28;20046;-46
2022/07/24 07:09:07;;;;;;;4.97;4.40;;;22.60;54.00;;;;;;4983227;28;20510;-48
2022/07/24 07:11:34;;;;;;;8.73;4.43;;;22.70;53.80;;;;;;4983358;28;20511;-46
2022/07/24 07:14:02;;;;;;;5.80;4.50;;;22.80;53.60;;;;;;4981180;28;20050;-46
2022/07/24 07:16:29;;;;;;;6.32;3.88;;;22.80;53.20;;;;;;4981240;28;20047;-45
2022/07/24 07:18:57;;;;;;;4.15;3.47;;;22.90;53.10;;;;;;4982272;28;20066;-45
2022/07/24 07:21:24;;;;;;;5.75;3.60;;;23.00;53.00;;;;;;4983246;28;20062;-47
2022/07/24 07:23:53;;;;;;;5.20;4.03;;;23.00;52.90;;;;;;4982023;28;20446;-45
2022/07/24 07:26:21;;;;;;;4.90;4.15;;;23.10;52.90;;;;;;4981382;28;20057;-45
2022/07/24 07:28:48;;;;;;;6.47;3.65;;;23.20;52.70;;;;;;4982309;28;20423;-47
2022/07/24 07:31:16;;;;;;;4.68;3.60;;;23.30;52.50;;;;;;4983578;28;20062;-44
2022/07/24 07:33:43;;;;;;;4.63;3.92;;;23.30;52.60;;;;;;4981824;28;20069;-44
2022/07/24 07:36:11;;;;;;;4.65;4.03;;;23.40;52.60;;;;;;4981985;28;20403;-45
2022/07/24 07:38:38;;;;;;;5.68;3.67;;;23.50;52.50;;;;;;4983627;28;20430;-46
2022/07/24 07:41:07;;;;;;;6.20;3.88;;;23.60;52.30;;;;;;4983627;28;20069;-48
2022/07/24 07:43:35;;;;;;;5.68;3.55;;;23.60;52.10;;;;;;4980685;28;20058;-45
2022/07/24 07:46:02;;;;;;;6.35;4.10;;;23.70;51.90;;;;;;4982319;28;20486;-45
2022/07/24 07:48:30;;;;;;;5.60;3.72;;;23.80;51.70;;;;;;4983734;28;20062;-45
2022/07/24 07:50:58;;;;;;;4.20;3.80;;;23.80;51.70;;;;;;4983338;28;20050;-50
2022/07/24 07:53:25;;;;;;;5.28;3.70;;;23.90;51.60;;;;;;4982120;28;20423;-44
2022/07/24 07:55:53;;;;;;;5.28;3.92;;;24.00;51.50;;;;;;4982090;28;20058;-45
2022/07/24 07:58:22;;;;;;;4.78;3.55;;;24.10;51.30;;;;;;4973435;28;20050;-45
2022/07/24 08:00:50;;;;;;;5.35;3.70;;;24.10;51.20;;;;;;4981380;28;20046;-46
2022/07/24 08:03:17;;;;;;;8.48;4.70;;;24.20;51.10;;;;;;4980944;28;20078;-44
2022/07/24 08:05:45;;;;;;;17.67;11.10;;;24.30;50.80;;;;;;4979713;28;20486;-44
2022/07/24 08:08:13;;;;;;;9.95;6.10;;;24.40;50.90;;;;;;4981720;28;20058;-45
2022/07/24 08:10:40;;;;;;;4.88;4.35;;;24.40;50.50;;;;;;4980987;28;20061;-44
2022/07/24 08:13:08;;;;;;;7.30;4.35;;;24.50;50.40;;;;;;4978434;28;20069;-44
2022/07/24 08:15:36;;;;;;;5.93;4.30;;;24.60;49.70;;;;;;4978672;28;20047;-45
2022/07/24 08:18:04;;;;;;;4.72;4.00;;;24.70;49.00;;;;;;4983181;28;20058;-43
2022/07/24 08:20:32;;;;;;;5.63;3.60;;;24.80;48.60;;;;;;4981417;28;20050;-44
2022/07/24 08:22:59;;;;;;;5.45;4.00;;;24.90;48.50;;;;;;4981798;28;20055;-46
2022/07/24 08:25:27;;;;;;;4.20;3.47;;;24.90;48.70;;;;;;4978202;28;20046;-47
2022/07/24 08:27:55;;;;;;;5.38;3.50;;;25.00;48.20;;;;;;4982438;28;20465;-44
2022/07/24 08:30:23;;;;;;;6.00;3.72;;;25.00;48.20;;;;;;4986061;28;20399;-44
2022/07/24 08:32:52;;;;;;;5.03;3.72;;;25.10;47.90;;;;;;4985225;28;20050;-46
2022/07/24 08:35:20;;;;;;;5.25;4.10;;;25.20;48.00;;;;;;4984773;28;20050;-44
2022/07/24 08:37:48;;;;;;;5.50;3.85;;;25.20;47.70;;;;;;4984393;28;20061;-46
2022/07/24 08:40:16;;;;;;;6.05;4.00;;;25.40;47.40;;;;;;4984550;28;20426;-51
2022/07/24 08:42:43;;;;;;;6.53;4.35;;;25.40;47.40;;;;;;4984094;28;20061;-44
2022/07/24 08:45:11;;;;;;;5.97;4.03;;;25.50;47.50;;;;;;4983530;28;20495;-45
2022/07/24 08:47:40;;;;;;;5.78;3.95;;;25.50;47.30;;;;;;4982460;28;20065;-50
2022/07/24 08:50:10;;;;;;;5.45;3.85;;;25.60;47.10;;;;;;4985610;28;20053;-45
2022/07/24 08:52:39;;;;;;;7.22;4.05;;;25.70;47.00;;;;;;4982360;28;20053;-45
2022/07/24 08:55:07;;;;;;;6.03;4.10;;;25.70;46.90;;;;;;4983629;28;20486;-44
2022/07/24 08:57:35;;;;;;;4.93;4.40;;;25.80;46.20;;;;;;4982241;28;20066;-45
2022/07/24 09:00:02;;;;;;;6.70;4.05;;;25.90;45.80;;;;;;4981932;28;20116;-49
2022/07/24 09:02:30;;;;;;;7.72;3.92;;;25.90;45.80;;;;;;4985835;28;20061;-45
2022/07/24 09:05:01;;;;;;;3.97;3.58;;;26.00;45.70;;;;;;4984127;28;20050;-45
2022/07/24 09:07:31;;;;;;;5.03;4.03;;;26.00;45.70;;;;;;4981590;28;20054;-44
2022/07/24 09:10:01;;;;;;;5.97;4.00;;;26.20;45.60;;;;;;4983437;28;20498;-47
2022/07/24 09:12:32;;;;;;;4.72;3.70;;;26.20;45.30;;;;;;4983458;28;20561;-44
2022/07/24 09:15:01;;;;;;;4.90;3.78;;;26.30;44.80;;;;;;4982989;28;20058;-44
2022/07/24 09:17:29;;;;;;;4.70;3.78;;;26.40;44.50;;;;;;4980555;28;20054;-44
2022/07/24 09:19:58;;;;;;;4.63;3.72;;;26.40;44.00;;;;;;4985510;28;20065;-45
2022/07/24 09:22:35;;;;;;;7.43;4.03;;;26.50;44.50;;;;;;4986853;28;20054;-46
2022/07/24 09:25:07;;;;;;;4.53;3.92;;;26.50;44.20;;;;;;4984134;28;20050;-45
2022/07/24 09:27:34;;;;;;;4.32;3.90;;;26.60;44.00;;;;;;4982334;28;20061;-45
2022/07/24 09:30:03;;;;;;;5.65;4.22;;;26.60;43.50;;;;;;4982741;28;20410;-45
2022/07/24 09:32:31;;;;;;;5.60;4.07;;;26.70;43.40;;;;;;4983419;28;20050;-45
2022/07/24 09:34:59;;;;;;;5.85;4.00;;;26.80;43.20;;;;;;4982700;28;20399;-44
2022/07/24 09:37:27;;;;;;;5.75;4.60;;;26.80;43.20;;;;;;4979086;28;20065;-44
2022/07/24 09:40:11;;;;;;;7.10;4.60;;;26.90;42.90;;;;;;4980963;28;20061;-45
2022/07/24 09:45:25;;;;;;;7.18;4.80;;;27.10;43.40;;;;;;4978355;28;19925;-44
2022/07/24 09:47:56;;;;;;;6.53;4.85;;;27.10;42.20;;;;;;4981156;28;20066;-45
2022/07/24 09:50:30;;;;;;;6.07;4.30;;;27.10;42.10;;;;;;4983801;28;20054;-44
2022/07/24 09:53:04;;;;;;;5.32;4.15;;;27.10;42.60;;;;;;4981877;28;20061;-44
2022/07/24 09:55:37;;;;;;;5.47;4.05;;;27.10;42.20;;;;;;4979420;28;20061;-44
2022/07/24 09:58:18;;;;;;;6.90;4.38;;;27.20;41.20;;;;;;4981745;28;20066;-44
2022/07/24 10:00:49;;;;;;;5.78;4.50;;;27.20;41.50;;;;;;4984191;28;20062;-43
2022/07/24 10:03:25;;;;;;;4.50;3.90;;;27.30;41.50;;;;;;4983188;28;20054;-44
2022/07/24 10:06:09;;;;;;;7.68;4.47;;;27.30;40.80;;;;;;4972509;28;20505;-44
2022/07/24 10:08:43;;;;;;;5.07;4.25;;;27.30;41.00;;;;;;4981471;28;20058;-44
2022/07/24 10:11:13;;;;;;;4.40;3.92;;;27.40;41.60;;;;;;4985017;28;20891;-43
2022/07/24 10:13:42;;;;;;;4.97;4.07;;;27.50;41.20;;;;;;4981728;28;20061;-44
2022/07/24 10:16:31;;;;;;;4.82;3.95;;;27.50;41.10;;;;;;4978246;28;20061;-47
2022/07/24 10:19:00;;;;;;;4.72;3.90;;;27.60;41.20;;;;;;4983400;28;20414;-47
2022/07/24 10:21:31;;;;;;;4.40;3.78;;;27.60;40.80;;;;;;4982560;28;20061;-43
2022/07/24 10:24:24;;;;;;;4.10;3.70;;;27.60;40.40;;;;;;4981955;28;20057;-46
2022/07/24 10:27:03;;;;;;;4.45;3.88;;;27.70;40.20;;;;;;4979376;28;20046;-43
2022/07/24 10:29:35;;;;;;;4.03;3.63;;;27.70;40.30;;;;;;4980723;28;20406;-46
2022/07/24 10:32:04;;;;;;;7.07;4.05;;;27.70;40.30;;;;;;4979906;28;20065;-43
2022/07/24 10:34:39;;;;;;;4.32;3.40;;;27.70;40.30;;;;;;4983369;28;20501;-45
2022/07/24 10:37:15;;;;;;;4.78;4.05;;;27.70;41.20;;;;;;4979201;28;20054;-48
2022/07/24 10:39:51;;;;;;;5.68;3.95;;;27.80;40.00;;;;;;4979170;28;20057;-45
2022/07/24 10:42:22;;;;;;;6.60;4.32;;;27.80;39.70;;;;;;4983441;28;20061;-47
2022/07/24 10:45:14;;;;;;;6.43;4.93;;;27.90;40.00;;;;;;4981482;28;20057;-46
2022/07/24 10:47:43;;;;;;;5.70;4.30;;;27.90;40.30;;;;;;4980954;28;20043;-46
2022/07/24 10:50:12;;;;;;;6.78;4.45;;;28.00;40.00;;;;;;4982769;28;20066;-45
2022/07/24 10:52:41;;;;;;;5.40;4.43;;;28.00;40.30;;;;;;4981138;28;20528;-45
2022/07/24 10:55:32;;;;;;;4.85;4.03;;;28.10;40.00;;;;;;4981261;28;20417;-44
2022/07/24 10:58:03;;;;;;;5.05;4.05;;;28.20;40.00;;;;;;4974860;28;20413;-46
2022/07/24 11:00:34;;;;;;;6.00;4.43;;;28.20;40.00;;;;;;4980818;28;20050;-43
2022/07/24 11:03:05;;;;;;;7.35;4.32;;;28.20;39.90;;;;;;4983683;28;20065;-44
2022/07/24 11:05:36;;;;;;;5.50;4.22;;;28.20;39.50;;;;;;4978080;28;20410;-44
2022/07/24 11:08:39;;;;;;;6.93;4.18;;;28.30;39.70;;;;;;4982586;28;20498;-48
2022/07/24 11:11:20;;;;;;;7.05;4.10;;;28.30;40.40;;;;;;4983020;28;20061;-49
2022/07/24 11:13:53;;;;;;;5.97;4.30;;;28.30;40.10;;;;;;4980249;28;20054;-49
2022/07/24 11:16:24;;;;;;;5.55;3.95;;;28.30;39.70;;;;;;4980111;28;20073;-45
2022/07/24 11:19:30;;;;;;;6.90;4.60;;;28.40;39.70;;;;;;4982899;28;20054;-47
2022/07/24 11:22:12;;;;;;;5.63;4.25;;;28.50;39.40;;;;;;4983287;28;20065;-44
2022/07/24 11:25:02;;;;;;;5.78;3.75;;;28.60;39.50;;;;;;4983532;28;20065;-46
2022/07/24 11:27:43;;;;;;;4.40;3.90;;;28.60;39.40;;;;;;4979580;28;20391;-47
2022/07/24 11:30:15;;;;;;;4.95;4.10;;;28.60;39.10;;;;;;4980910;28;20054;-46
2022/07/24 11:32:45;;;;;;;5.30;4.30;;;28.60;39.40;;;;;;4980680;28;20054;-44
2022/07/24 11:35:15;;;;;;;6.95;4.68;;;28.70;39.40;;;;;;4982966;28;20058;-48
2022/07/24 11:37:46;;;;;;;4.57;3.80;;;28.70;39.50;;;;;;4980186;28;20050;-44
2022/07/24 11:40:18;;;;;;;6.13;4.25;;;28.70;39.40;;;;;;4983364;28;20065;-45
2022/07/24 11:42:48;;;;;;;4.25;3.85;;;28.70;39.20;;;;;;4980546;28;20054;-44
2022/07/24 11:45:23;;;;;;;9.60;4.32;;;28.80;39.80;;;;;;4979522;28;20061;-47
2022/07/24 11:47:54;;;;;;;4.85;4.00;;;28.90;39.50;;;;;;4979892;28;20066;-47
2022/07/24 11:50:23;;;;;;;7.55;4.45;;;28.90;39.10;;;;;;4982127;28;20081;-47
2022/07/24 11:52:51;;;;;;;4.35;3.83;;;28.90;38.80;;;;;;4979669;28;20053;-46
2022/07/24 11:55:21;;;;;;;5.47;4.40;;;29.00;38.60;;;;;;4981438;28;20058;-48
2022/07/24 11:57:50;;;;;;;6.70;4.05;;;29.00;38.40;;;;;;4977134;28;20045;-46
2022/07/24 12:00:24;;;;;;;5.75;4.13;;;29.10;38.50;;;;;;4982487;28;20061;-44
2022/07/24 12:02:54;;;;;;;4.90;4.40;;;29.10;38.70;;;;;;4983087;28;20062;-45
2022/07/24 12:05:26;;;;;;;5.43;4.55;;;29.10;38.40;;;;;;4984667;28;20486;-45
2022/07/24 12:07:56;;;;;;;5.65;4.47;;;29.20;39.00;;;;;;4984726;28;20418;-44
2022/07/24 12:10:24;;;;;;;6.50;4.28;;;29.30;38.60;;;;;;4985349;28;20058;-46
2022/07/24 12:12:56;;;;;;;8.48;4.20;;;29.30;38.50;;;;;;4974481;28;20423;-43
2022/07/24 12:15:30;;;;;;;7.60;4.07;;;29.40;38.40;;;;;;4983331;28;20084;-44
2022/07/24 12:18:04;;;;;;;6.32;4.32;;;29.40;38.50;;;;;;4981007;28;20434;-45
2022/07/24 12:20:37;;;;;;;9.25;4.60;;;29.40;38.00;;;;;;4983288;28;20454;-45
2022/07/24 12:23:12;;;;;;;6.00;4.43;;;29.50;38.40;;;;;;4980666;28;20050;-44
2022/07/24 12:25:47;;;;;;;4.45;4.05;;;29.50;39.20;;;;;;4982762;28;20054;-45
2022/07/24 12:28:17;;;;;;;5.38;4.38;;;29.60;39.10;;;;;;4984032;28;20046;-44
2022/07/24 12:30:53;;;;;;;4.85;3.90;;;29.60;38.40;;;;;;4984037;28;20506;-44
2022/07/24 12:33:24;;;;;;;5.07;4.25;;;29.70;38.20;;;;;;4980200;28;20521;-44
2022/07/24 12:35:58;;;;;;;7.15;4.57;;;29.80;38.10;;;;;;4980254;28;20069;-46
2022/07/24 12:38:29;;;;;;;4.72;4.20;;;29.80;38.30;;;;;;4983215;28;20525;-44
2022/07/24 12:41:08;;;;;;;6.50;4.18;;;29.90;38.00;;;;;;4979521;28;20399;-44
2022/07/24 12:43:53;;;;;;;5.75;3.97;;;29.90;37.70;;;;;;4981520;28;20426;-45
2022/07/24 12:46:25;;;;;;;7.82;4.68;;;29.90;37.90;;;;;;4977993;28;20422;-44
2022/07/24 12:49:07;;;;;;;6.10;4.30;;;30.00;37.00;;;;;;4983282;28;20058;-44
2022/07/24 12:51:50;;;;;;;4.57;3.80;;;30.00;37.30;;;;;;4982660;28;20061;-44
2022/07/24 12:54:20;;;;;;;7.68;3.97;;;30.10;37.30;;;;;;4977771;28;20058;-47
2022/07/24 12:56:52;;;;;;;6.10;3.88;;;30.10;37.70;;;;;;4979278;28;20050;-51
2022/07/24 12:59:26;;;;;;;7.60;3.95;;;30.10;37.50;;;;;;4982458;28;20109;-46
2022/07/24 13:01:57;;;;;;;8.23;4.50;;;30.20;36.90;;;;;;4983160;28;20070;-45